Ash Point, ME

1:26 AM EDT on May 28, 2017 (GMT -0400)
Knox County Regional | | Change Station
Active Advisory: Coastal Flood Statement Active Notice: Coastal Flood Statement

Elev 52 ft 44.06 °N, 69.10 °W | Updated 30 minutes ago

Fog
Fog
44 °F
Feels Like 42 °F
N
4
Wind Variable Wind from West

Today
High -- | Low -- °F
--% Chance of Precip.
Yesterday
High -- | Low -- °F
Precip. -- in
Pressure 29.98 in
Visibility 0.2 miles
Clouds Overcast 100 ft
Windchill 42 °F
Dew Point 44 °F
Humidity 100%
Rainfall 0.00 in
Snow Depth Not available.
4:58 AM 8:09 PM
Waxing Crescent, 9% visible
METAR KRKD 280456Z AUTO 28003KT 1/4SM FG OVC001 07/07 A2997 RMK AO2 SLP151 T00670067 401560056
Pressure 29.98 in
Visibility 0.2 miles
Clouds Overcast 100 ft
Windchill 42 °F
Dew Point 44 °F
Humidity 100%
Rainfall 0.00 in
Snow Depth Not available.
4:58 AM 8:09 PM
Waxing Crescent, 9% visible
METAR KRKD 280456Z AUTO 28003KT 1/4SM FG OVC001 07/07 A2997 RMK AO2 SLP151 T00670067 401560056

Get Your Daily Forecast Email!

Thanks for signing up!

Be on the lookout for a verification email in your inbox.

You'll start receiving severe weather alerts in your inbox..

×

10-Day Weather Forecast

Almanac

Astronomy

May. 28, 2017 Rise Set
Actual Time
Civil Twilight
Nautical Twilight
Astronomical Twilight
Moon
Length of Visible Light
Length of Day
Tomorrow will be .
, % of the Moon is Illuminated

Today's Extremes

State Highs State Lows

Community

WunderPhotos

Category 6

Welcome to Category 6. This is the collective home for Weather Underground's featured writeups by Dr. Jeff Masters (right), Bob Henson (left), Chris Burt, and other regular contributors.

Nearby

Air Quality

  Air Quality AQ Index Pollutant
Not available.

Snow Depth

Station Depth Elevation

Earthquake Activity

City Distance Mag. Time & Date
Minimum magnitude displayed is 2.5.

Coastal Water Temperatures

Place Temperature

Stations

Nearby Weather Stations

Station Location Temp. Windchill Dew Point Humidity Wind Precip. Elev Updated Type
                   

Watches & Warnings

Coastal Flood Statement
Issued: 11:58 PM EDT May. 27, 2017 – National Weather Service

... Minor coastal flooding possible around high tide overnight...

* location... the midcoast of Maine.

* Coastal flooding and splash-over... minor.

* Timing... near the time of high tide around 1 am.

* Impacts... minor coastal flooding may occur in the more
vulnerable areas.